EGNV/MME METAR and TAF weather

Enter ICAO airport designator
Station Type Date Time Source
EGNV METAR 2019/02/23 16:50 UTC NOAA

EGNV 231650Z 18007KT 7000 FEW025 12/08 Q1030


Station Type Date Time Source
EGNV Decoded METAR 2019/02/23 16:50 UTC NOAA

Tees-Side, United Kingdom (EGNV) 54-31N 001-25W
Feb 23, 2019 - 11:50 AM EST / 2019.02.23 1650 UTC
Wind: from the S (180 degrees) at 8 MPH (7 KT):0
Visibility: 4 mile(s):0
Sky conditions: mostly clear
Temperature: 53 F (12 C)
Dew Point: 46 F (8 C)
Relative Humidity: 76%
Pressure (altimeter): 30.42 in. Hg (1030 hPa)
ob: EGNV 231650Z 18007KT 7000 FEW025 12/08 Q1030
cycle: 17

Station Type Date Time Source
EGNV TAF 2016/01/23 12:00 UTC NOAA

TAF EGNV 231059Z 2312/2321 18008KT 9999 FEW030 PROB40 2319/2321 6000 RADZ BKN014


Example: see airport list